createdAt,value
2018-12-07T00:01:52.197Z,95774.50
2018-12-07T00:04:22.456Z,95775.42
2018-12-07T00:06:52.670Z,95779.05
2018-12-07T00:09:22.785Z,95787.07
2018-12-07T00:11:52.936Z,95787.09
2018-12-07T00:14:23.183Z,95783.11
2018-12-07T00:16:53.476Z,95777.38
2018-12-07T00:19:24.304Z,95771.78
2018-12-07T00:21:54.527Z,95774.89
2018-12-07T00:24:24.701Z,95772.05
2018-12-07T00:26:54.893Z,95767.25
2018-12-07T00:29:25.129Z,95766.30
2018-12-07T00:31:56.007Z,95768.49
2018-12-07T00:34:26.118Z,95767.75
2018-12-07T00:36:56.337Z,95764.71
2018-12-07T00:39:26.686Z,95758.81
2018-12-07T00:41:56.965Z,95754.13
2018-12-07T00:44:27.135Z,95755.98
2018-12-07T00:46:57.400Z,95757.02
2018-12-07T00:49:27.854Z,95757.26
2018-12-07T00:51:58.132Z,95755.93
2018-12-07T00:54:28.536Z,95751.62
2018-12-07T00:56:58.742Z,95747.34
2018-12-07T00:59:29.048Z,95748.55
2018-12-07T01:01:59.319Z,95748.06
2018-12-07T01:04:29.590Z,95746.77
2018-12-07T01:07:00.144Z,95748.09
2018-12-07T01:09:30.480Z,95754.83
2018-12-07T01:12:00.586Z,95750.81
2018-12-07T01:14:30.685Z,95744.89
2018-12-07T01:17:00.905Z,95746.22
2018-12-07T01:19:31.340Z,95751.97
2018-12-07T01:22:01.680Z,95752.52
2018-12-07T01:24:32.419Z,95755.58
2018-12-07T01:27:02.630Z,95752.41
2018-12-07T01:29:32.870Z,95749.64
2018-12-07T01:32:03.053Z,95743.93
2018-12-07T01:34:33.217Z,95745.43
2018-12-07T01:37:03.639Z,95747.28
2018-12-07T01:39:33.865Z,95750.63
2018-12-07T01:42:04.164Z,95751.91
2018-12-07T01:44:34.366Z,95750.38
2018-12-07T01:47:04.473Z,95752.86
2018-12-07T01:49:34.769Z,95752.91
2018-12-07T01:52:05.775Z,95750.95
2018-12-07T01:54:35.962Z,95756.34
2018-12-07T01:57:06.091Z,95753.11
2018-12-07T01:59:36.511Z,95760.94
2018-12-07T02:02:06.707Z,95737.84
2018-12-07T02:04:37.027Z,95758.84
2018-12-07T02:07:16.987Z,95762.52
2018-12-07T02:09:47.207Z,95762.59
2018-12-07T02:12:17.396Z,95763.77
2018-12-07T02:14:47.652Z,95759.60
2018-12-07T02:17:17.899Z,95758.41
2018-12-07T02:19:48.280Z,95750.64
2018-12-07T02:22:18.775Z,95738.75
2018-12-07T02:24:49.048Z,95734.22
2018-12-07T02:27:19.751Z,95735.64
2018-12-07T02:29:50.009Z,95735.27
2018-12-07T02:32:20.724Z,95731.91
2018-12-07T02:34:51.081Z,95736.39
2018-12-07T02:37:21.856Z,95728.99
2018-12-07T02:39:52.134Z,95730.96
2018-12-07T02:42:22.270Z,95729.72
2018-12-07T02:44:52.554Z,95728.67
2018-12-07T02:47:22.760Z,95721.47
2018-12-07T02:49:53.699Z,95725.32
2018-12-07T02:52:23.998Z,95728.09
2018-12-07T02:54:54.186Z,95734.20
2018-12-07T02:57:24.491Z,95735.71
2018-12-07T02:59:54.760Z,95735.71
2018-12-07T03:02:25.001Z,95733.43
2018-12-07T03:04:56.028Z,95745.66
2018-12-07T03:07:26.204Z,95747.97
2018-12-07T03:09:56.600Z,95750.38
2018-12-07T03:12:26.780Z,95749.13
2018-12-07T03:14:56.931Z,95750.95
2018-12-07T03:17:27.188Z,95759.50
2018-12-07T03:19:57.522Z,95756.96
2018-12-07T03:22:27.776Z,95760.75
2018-12-07T03:24:58.008Z,95767.12
2018-12-07T03:27:28.296Z,95765.98
2018-12-07T03:29:58.584Z,95766.87
2018-12-07T03:32:29.047Z,95763.17
2018-12-07T03:34:59.268Z,95758.99
2018-12-07T03:37:29.567Z,95759.05
2018-12-07T03:40:00.038Z,95756.52
2018-12-07T03:42:30.299Z,95756.04
2018-12-07T03:45:00.469Z,95759.85
2018-12-07T03:47:30.868Z,95753.27
2018-12-07T03:50:01.028Z,95758.45
2018-12-07T03:52:31.356Z,95750.52
2018-12-07T03:55:01.692Z,95749.01
2018-12-07T03:57:31.814Z,95753.28
2018-12-07T04:00:02.233Z,95754.20
2018-12-07T04:02:33.850Z,95751.79
2018-12-07T04:05:04.947Z,95762.52
2018-12-07T04:07:35.229Z,95763.56
2018-12-07T04:10:05.879Z,95761.95
2018-12-07T04:12:36.487Z,95759.98
2018-12-07T04:15:07.164Z,95762.87
2018-12-07T04:17:37.573Z,95756.52
2018-12-07T04:20:07.973Z,95761.13
2018-12-07T04:22:38.339Z,95762.17
2018-12-07T04:25:08.609Z,95768.05
2018-12-07T04:27:40.028Z,95770.95
2018-12-07T04:30:20.992Z,95767.95
2018-12-07T04:32:51.361Z,95766.34
2018-12-07T04:35:21.839Z,95762.75
2018-12-07T04:37:51.955Z,95759.52
2018-12-07T04:40:22.135Z,95753.63
2018-12-07T04:42:52.432Z,95758.36
2018-12-07T04:45:22.742Z,95770.59
2018-12-07T04:47:52.949Z,95760.32
2018-12-07T04:50:23.302Z,95751.78
2018-12-07T04:52:53.566Z,95757.31
2018-12-07T04:55:23.794Z,95757.55
2018-12-07T04:57:53.926Z,95759.05
2018-12-07T05:00:24.009Z,95751.07
2018-12-07T05:02:54.298Z,95753.95
2018-12-07T05:05:24.754Z,95758.45
2018-12-07T05:07:55.035Z,95760.44
2018-12-07T05:10:25.344Z,95760.77
2018-12-07T05:12:55.654Z,95763.22
2018-12-07T05:15:25.891Z,95767.70
2018-12-07T05:17:56.246Z,95771.27
2018-12-07T05:20:26.588Z,95773.80
2018-12-07T05:22:56.823Z,95782.23
2018-12-07T05:25:27.118Z,95780.71
2018-12-07T05:27:57.308Z,95782.59
2018-12-07T05:30:29.263Z,95782.35
2018-12-07T05:33:00.363Z,95779.92
2018-12-07T05:35:30.786Z,95781.08
2018-12-07T05:38:01.124Z,95777.06
2018-12-07T05:40:31.285Z,95775.19
2018-12-07T05:43:01.606Z,95779.23
2018-12-07T05:45:31.818Z,95779.25
2018-12-07T05:48:02.064Z,95775.89
2018-12-07T05:50:32.310Z,95782.70
2018-12-07T05:53:02.580Z,95793.45
2018-12-07T05:55:32.960Z,95794.04
2018-12-07T05:58:03.172Z,95784.91
2018-12-07T06:00:33.727Z,95788.51
2018-12-07T06:03:04.226Z,95787.80
2018-12-07T06:05:35.412Z,95795.42
2018-12-07T06:08:05.715Z,95796.11
2018-12-07T06:10:35.933Z,95799.59
2018-12-07T06:13:06.193Z,95802.69
2018-12-07T06:15:36.341Z,95799.11
2018-12-07T06:18:06.585Z,95799.34
2018-12-07T06:20:36.968Z,95809.98
2018-12-07T06:23:07.261Z,95813.88
2018-12-07T06:25:37.569Z,95809.00
2018-12-07T06:28:07.750Z,95816.94
2018-12-07T06:30:37.972Z,95809.84
2018-12-07T06:33:08.231Z,95807.59
2018-12-07T06:35:38.596Z,95809.95
2018-12-07T06:38:08.859Z,95808.75
2018-12-07T06:40:39.964Z,95809.02
2018-12-07T06:43:10.064Z,95803.71
2018-12-07T06:45:40.398Z,95806.17
2018-12-07T06:48:10.876Z,95797.89
2018-12-07T06:50:41.344Z,95793.77
2018-12-07T06:53:11.765Z,95792.05
2018-12-07T06:55:41.968Z,95794.20
2018-12-07T06:58:12.211Z,95781.55
2018-12-07T07:00:42.541Z,95788.02
2018-12-07T07:03:12.889Z,95798.27
2018-12-07T07:05:43.097Z,95798.27
2018-12-07T07:08:13.284Z,95802.66
2018-12-07T07:10:43.528Z,95805.45
2018-12-07T07:13:13.701Z,95804.91
2018-12-07T07:15:43.902Z,95808.72
2018-12-07T07:18:14.138Z,95820.62
2018-12-07T07:20:44.550Z,95820.06
2018-12-07T07:23:14.827Z,95816.05
2018-12-07T07:25:45.026Z,95818.34
2018-12-07T07:28:15.304Z,95813.73
2018-12-07T07:30:45.482Z,95813.92
2018-12-07T07:33:15.743Z,95805.80
2018-12-07T07:35:46.079Z,95806.22
2018-12-07T07:38:16.966Z,95803.09
2018-12-07T07:40:47.065Z,95791.43
2018-12-07T07:43:17.193Z,95791.22
2018-12-07T07:45:47.441Z,95784.67
2018-12-07T07:48:17.685Z,95783.07
2018-12-07T07:50:48.030Z,95790.90
2018-12-07T07:53:18.369Z,95777.36
2018-12-07T07:55:48.650Z,95768.44
2018-12-07T07:58:18.958Z,95758.81
2018-12-07T08:00:49.293Z,95755.53
2018-12-07T08:03:19.500Z,95759.89
2018-12-07T08:05:51.066Z,95757.25
2018-12-07T08:08:21.396Z,95757.91
2018-12-07T08:10:51.686Z,95744.59
2018-12-07T08:13:22.317Z,95746.97
2018-12-07T08:15:52.683Z,95727.89
2018-12-07T08:18:22.801Z,95722.56
2018-12-07T08:20:53.181Z,95717.04
2018-12-07T08:23:23.693Z,95710.80
2018-12-07T08:25:54.467Z,95711.45
2018-12-07T08:28:25.236Z,95706.64
2018-12-07T08:30:55.656Z,95708.06
2018-12-07T08:33:26.005Z,95703.98
2018-12-07T08:35:56.291Z,95712.11
2018-12-07T08:38:26.488Z,95725.08
2018-12-07T08:40:57.061Z,95720.05
2018-12-07T08:43:27.276Z,95711.69
2018-12-07T08:45:57.499Z,95714.37
2018-12-07T08:48:27.761Z,95709.41
2018-12-07T08:50:58.053Z,95707.62
2018-12-07T08:53:29.012Z,95715.68
2018-12-07T08:55:59.499Z,95712.50
2018-12-07T08:58:29.834Z,95708.17
2018-12-07T09:01:00.122Z,95702.37
2018-12-07T09:03:30.327Z,95704.36
2018-12-07T09:06:00.831Z,95702.42
2018-12-07T09:08:31.322Z,95697.12
2018-12-07T09:11:01.708Z,95693.13
2018-12-07T09:13:32.066Z,95690.31
2018-12-07T09:16:02.309Z,95680.77
2018-12-07T09:18:32.638Z,95672.19
2018-12-07T09:21:02.895Z,95665.49
2018-12-07T09:23:33.092Z,95661.67
2018-12-07T09:26:03.362Z,95669.72
2018-12-07T09:28:33.603Z,95664.41
2018-12-07T09:31:03.862Z,95653.96
2018-12-07T09:33:34.301Z,95649.08
2018-12-07T09:36:04.365Z,95640.36
2018-12-07T09:38:35.350Z,95639.61
2018-12-07T09:41:06.137Z,95631.59
2018-12-07T09:43:36.373Z,95635.92
2018-12-07T09:46:06.716Z,95639.63
2018-12-07T09:48:37.027Z,95639.77
2018-12-07T09:51:07.186Z,95630.92
2018-12-07T09:53:37.289Z,95623.70
2018-12-07T09:56:08.380Z,95618.26
2018-12-07T09:58:38.643Z,95611.83
2018-12-07T10:01:08.838Z,95600.59
2018-12-07T10:03:39.121Z,95599.70
2018-12-07T10:06:09.290Z,95608.57
2018-12-07T10:08:39.648Z,95596.14
2018-12-07T10:11:09.981Z,95583.58
2018-12-07T10:13:40.099Z,95575.45
2018-12-07T10:16:10.469Z,95571.20
2018-12-07T10:18:40.721Z,95572.09
2018-12-07T10:21:11.057Z,95570.47
2018-12-07T10:23:41.205Z,95565.02
2018-12-07T10:26:11.511Z,95567.30
2018-12-07T10:28:41.784Z,95561.69
2018-12-07T10:31:12.036Z,95556.41
2018-12-07T10:33:42.167Z,95555.70
2018-12-07T10:36:12.544Z,95553.70
2018-12-07T10:38:42.870Z,95555.14
2018-12-07T10:41:13.052Z,95557.50
2018-12-07T10:43:43.642Z,95556.08
2018-12-07T10:46:14.086Z,95550.30
2018-12-07T10:48:44.414Z,95556.98
2018-12-07T10:51:14.822Z,95558.20
2018-12-07T10:53:45.090Z,95560.10
2018-12-07T10:56:15.289Z,95551.17
2018-12-07T10:58:45.476Z,95544.78
2018-12-07T11:01:20.903Z,95535.13
2018-12-07T11:03:56.177Z,95537.00
2018-12-07T11:06:31.544Z,95529.43
2018-12-07T11:09:07.110Z,95524.76
2018-12-07T11:11:45.129Z,95529.95
2018-12-07T11:14:21.232Z,95528.30
2018-12-07T11:16:56.724Z,95520.72
2018-12-07T11:19:32.007Z,95516.11
2018-12-07T11:22:07.266Z,95504.52
2018-12-07T11:24:42.701Z,95500.84
2018-12-07T11:27:17.983Z,95501.55
2018-12-07T11:29:53.409Z,95492.76
2018-12-07T11:33:26.875Z,95478.16
2018-12-07T11:35:57.698Z,95471.80
2018-12-07T11:38:27.923Z,95459.99
2018-12-07T11:40:58.087Z,95450.52
2018-12-07T11:43:30.543Z,95455.42
2018-12-07T11:46:00.769Z,95450.61
2018-12-07T11:48:31.157Z,95445.52
2018-12-07T11:51:01.469Z,95448.17
2018-12-07T11:53:31.894Z,95446.70
2018-12-07T11:56:02.234Z,95449.47
2018-12-07T11:58:32.351Z,95447.27
2018-12-07T12:01:02.614Z,95444.94
2018-12-07T12:03:33.856Z,95443.40
2018-12-07T12:06:04.345Z,95453.83
2018-12-07T12:08:34.642Z,95451.51
2018-12-07T12:11:05.909Z,95459.47
2018-12-07T12:13:36.130Z,95458.94
2018-12-07T12:16:06.535Z,95465.94
2018-12-07T12:18:37.471Z,95455.78
2018-12-07T12:21:07.820Z,95461.11
2018-12-07T12:23:38.340Z,95449.77
2018-12-07T12:26:08.568Z,95445.36
2018-12-07T12:28:38.756Z,95438.59
2018-12-07T12:31:09.151Z,95440.15
2018-12-07T12:33:39.409Z,95429.80
2018-12-07T12:36:16.792Z,95442.30
2018-12-07T12:38:43.128Z,95446.62
2018-12-07T12:41:13.380Z,95433.96
2018-12-07T12:43:43.733Z,95426.58
2018-12-07T12:46:14.140Z,95425.89
2018-12-07T12:48:44.372Z,95427.16
2018-12-07T12:51:15.109Z,95429.84
2018-12-07T12:53:45.502Z,95436.72
2018-12-07T12:56:15.892Z,95430.16
2018-12-07T12:58:46.212Z,95435.61
2018-12-07T13:01:16.419Z,95439.45
2018-12-07T13:03:46.621Z,95440.77
2018-12-07T13:06:17.016Z,95442.16
2018-12-07T13:08:47.221Z,95437.27
2018-12-07T13:11:17.481Z,95441.16
2018-12-07T13:13:47.720Z,95436.35
2018-12-07T13:16:18.096Z,95432.97
2018-12-07T13:18:48.468Z,95442.00
2018-12-07T13:21:18.761Z,95439.36
2018-12-07T13:23:49.201Z,95435.93
2018-12-07T13:26:19.376Z,95444.99
2018-12-07T13:28:49.449Z,95438.06
2018-12-07T13:31:19.668Z,95436.72
2018-12-07T13:33:50.841Z,95434.96
2018-12-07T13:36:21.261Z,95439.30
2018-12-07T13:38:51.655Z,95433.42
2018-12-07T13:41:22.032Z,95435.14
2018-12-07T13:43:52.207Z,95435.64
2018-12-07T13:46:22.631Z,95439.27
2018-12-07T13:48:53.100Z,95434.39
2018-12-07T13:51:23.368Z,95441.29
2018-12-07T13:53:53.908Z,95438.53
2018-12-07T13:56:24.370Z,95433.93
2018-12-07T13:58:54.771Z,95435.16
2018-12-07T14:01:25.199Z,95425.06
2018-12-07T14:03:56.684Z,95412.41
2018-12-07T14:06:27.130Z,95417.42
2018-12-07T14:08:57.607Z,95411.27
2018-12-07T14:11:28.107Z,95408.91
2018-12-07T14:13:59.486Z,95408.18
2018-12-07T14:16:30.032Z,95402.16
2018-12-07T14:19:00.350Z,95398.43
2018-12-07T14:21:31.126Z,95396.64
2018-12-07T14:24:01.540Z,95395.88
2018-12-07T14:26:31.943Z,95389.89
2018-12-07T14:29:02.390Z,95388.36
2018-12-07T14:31:33.014Z,95386.05
2018-12-07T14:34:03.283Z,95389.05
2018-12-07T14:36:33.576Z,95385.77
2018-12-07T14:39:06.229Z,95384.97
2018-12-07T14:41:36.908Z,95381.16
2018-12-07T14:44:07.486Z,95370.95
2018-12-07T14:46:37.856Z,95383.86
2018-12-07T14:49:08.653Z,95377.72
2018-12-07T14:51:39.277Z,95385.61
2018-12-07T14:54:09.922Z,95378.45
2018-12-07T14:56:40.276Z,95380.63
2018-12-07T14:59:10.545Z,95375.39
2018-12-07T15:01:41.706Z,95376.61
2018-12-07T15:04:12.380Z,95371.45
2018-12-07T15:06:42.934Z,95368.22
2018-12-07T15:09:13.500Z,95368.03
2018-12-07T15:11:43.925Z,95353.94
2018-12-07T15:14:14.495Z,95351.09
2018-12-07T15:16:45.615Z,95359.94
2018-12-07T15:19:16.080Z,95359.66
2018-12-07T15:21:46.779Z,95358.66
2018-12-07T15:24:17.347Z,95362.55
2018-12-07T15:26:47.761Z,95359.60
2018-12-07T15:29:18.072Z,95364.12
2018-12-07T15:31:48.596Z,95364.16
2018-12-07T15:34:20.208Z,95363.41
2018-12-07T15:36:50.687Z,95369.39
2018-12-07T15:39:21.193Z,95368.98
2018-12-07T15:41:51.603Z,95375.09
2018-12-07T15:44:22.134Z,95383.16
2018-12-07T15:46:53.048Z,95384.16
2018-12-07T15:49:23.554Z,95388.06
2018-12-07T15:51:53.861Z,95391.16
2018-12-07T15:54:24.396Z,95389.14
2018-12-07T15:56:54.850Z,95384.96
2018-12-07T15:59:25.997Z,95385.57
2018-12-07T16:01:58.156Z,95388.81
2018-12-07T16:04:29.415Z,95385.95
2018-12-07T16:06:59.760Z,95393.63
2018-12-07T16:09:30.043Z,95386.56
2018-12-07T16:12:00.592Z,95394.59
2018-12-07T16:14:31.026Z,95391.77
2018-12-07T16:17:01.479Z,95392.45
2018-12-07T16:19:31.993Z,95406.59
2018-12-07T16:22:03.372Z,95395.36
2018-12-07T16:24:34.092Z,95394.40
2018-12-07T16:27:04.665Z,95393.41
2018-12-07T16:29:35.236Z,95392.48
2018-12-07T16:32:05.754Z,95385.39
2018-12-07T16:34:36.191Z,95381.41
2018-12-07T16:37:06.575Z,95377.39
2018-12-07T16:39:37.129Z,95376.75
2018-12-07T16:42:07.768Z,95377.69
2018-12-07T16:44:38.287Z,95369.38
2018-12-07T16:47:08.598Z,95355.89
2018-12-07T16:49:38.953Z,95354.13
2018-12-07T16:52:09.452Z,95358.65
2018-12-07T16:54:40.193Z,95356.53
2018-12-07T16:57:10.532Z,95355.44
2018-12-07T16:59:41.110Z,95361.23
2018-12-07T17:02:12.448Z,95362.53
2018-12-07T17:04:43.183Z,95372.65
2018-12-07T17:07:13.665Z,95370.08
2018-12-07T17:09:43.983Z,95364.30
2018-12-07T17:12:14.607Z,95363.83
2018-12-07T17:14:45.258Z,95360.95
2018-12-07T17:17:15.569Z,95362.04
2018-12-07T17:19:45.864Z,95364.61
2018-12-07T17:22:16.263Z,95363.97
2018-12-07T17:24:46.755Z,95363.17
2018-12-07T17:27:17.168Z,95363.01
2018-12-07T17:29:47.769Z,95343.14
2018-12-07T17:32:18.197Z,95356.45
2018-12-07T17:34:49.219Z,95351.34
2018-12-07T17:37:19.398Z,95348.48
2018-12-07T17:39:49.773Z,95341.10
2018-12-07T17:42:20.418Z,95345.60
2018-12-07T17:44:50.840Z,95350.87
2018-12-07T17:47:21.260Z,95342.55
2018-12-07T17:49:51.846Z,95339.34
2018-12-07T17:52:22.089Z,95342.36
2018-12-07T17:54:53.118Z,95347.66
2018-12-07T17:57:24.858Z,95348.95
2018-12-07T17:59:56.101Z,95348.29
2018-12-07T18:02:26.544Z,95338.01
2018-12-07T18:04:56.823Z,95332.58
2018-12-07T18:07:28.230Z,95340.28
2018-12-07T18:10:00.329Z,95331.30
2018-12-07T18:12:30.735Z,95322.64
2018-12-07T18:15:01.363Z,95333.88
2018-12-07T18:17:31.929Z,95331.30
2018-12-07T18:20:02.170Z,95329.05
2018-12-07T18:22:32.550Z,95323.30
2018-12-07T18:25:03.486Z,95322.33
2018-12-07T18:27:34.187Z,95319.78
2018-12-07T18:30:04.900Z,95320.75
2018-12-07T18:32:35.407Z,95320.91
2018-12-07T18:35:06.075Z,95332.61
2018-12-07T18:37:36.345Z,95321.07
2018-12-07T18:40:07.420Z,95302.16
2018-12-07T18:42:38.136Z,95310.65
2018-12-07T18:45:08.733Z,95313.55
2018-12-07T18:47:39.588Z,95313.39
2018-12-07T18:50:10.453Z,95309.06
2018-12-07T18:52:40.898Z,95300.40
2018-12-07T18:55:11.908Z,95302.81
2018-12-07T18:57:43.644Z,95301.69
2018-12-07T19:00:14.245Z,95301.53
2018-12-07T19:02:44.450Z,95304.59
2018-12-07T19:05:15.029Z,95311.48
2018-12-07T19:07:45.415Z,95301.39
2018-12-07T19:10:16.015Z,95301.38
2018-12-07T19:12:46.524Z,95294.98
2018-12-07T19:15:17.939Z,95302.36
2018-12-07T19:17:48.356Z,95296.26
2018-12-07T19:20:18.794Z,95305.87
2018-12-07T19:22:49.387Z,95307.30
2018-12-07T19:25:19.958Z,95307.92
2018-12-07T19:27:50.389Z,95310.28
2018-12-07T19:30:20.973Z,95297.58
2018-12-07T19:32:51.371Z,95305.61
2018-12-07T19:35:22.990Z,95300.49
2018-12-07T19:37:53.783Z,95293.63
2018-12-07T19:40:24.227Z,95286.57
2018-12-07T19:42:54.788Z,95287.34
2018-12-07T19:45:25.156Z,95287.50
2018-12-07T19:47:57.030Z,95296.02
2018-12-07T19:50:27.447Z,95287.07
2018-12-07T19:52:58.014Z,95284.66
2018-12-07T19:55:28.783Z,95276.81
2018-12-07T19:57:59.486Z,95285.39
2018-12-07T20:00:29.809Z,95284.44
2018-12-07T20:03:00.603Z,95285.22
2018-12-07T20:05:31.033Z,95273.52
2018-12-07T20:08:01.541Z,95265.88
2018-12-07T20:10:31.944Z,95268.76
2018-12-07T20:13:02.370Z,95263.31
2018-12-07T20:15:32.700Z,95267.16
2018-12-07T20:18:02.936Z,95261.26
2018-12-07T20:20:33.540Z,95257.90
2018-12-07T20:23:04.138Z,95263.02
2018-12-07T20:25:34.756Z,95252.15
2018-12-07T20:28:06.411Z,95243.20
2018-12-07T20:30:37.254Z,95245.08
2018-12-07T20:33:07.612Z,95245.89
2018-12-07T20:35:38.137Z,95244.00
2018-12-07T20:38:08.636Z,95238.70
2018-12-07T20:40:38.771Z,95235.48
2018-12-07T20:43:09.229Z,95224.59
2018-12-07T20:45:39.592Z,95228.58
2018-12-07T20:48:09.910Z,95222.02
2018-12-07T20:50:40.194Z,95225.07
2018-12-07T20:53:10.704Z,95223.29
2018-12-07T20:55:41.441Z,95223.59
2018-12-07T20:58:12.916Z,95225.52
2018-12-07T21:00:43.505Z,95216.66
2018-12-07T21:03:14.496Z,95220.03
2018-12-07T21:06:17.909Z,95222.44
2018-12-07T21:09:26.277Z,95211.67
2018-12-07T21:12:17.649Z,95203.67
2018-12-07T21:14:50.881Z,95210.06
2018-12-07T21:17:28.860Z,95211.34
2018-12-07T21:20:31.327Z,95205.87
2018-12-07T21:23:01.918Z,95216.78
2018-12-07T21:25:32.289Z,95217.44
2018-12-07T21:28:03.670Z,95223.53
2018-12-07T21:30:57.470Z,95214.81
2018-12-07T21:33:38.302Z,95212.11
2018-12-07T21:36:47.021Z,95213.56
2018-12-07T21:39:33.775Z,95212.77
2018-12-07T21:42:04.196Z,95203.81
2018-12-07T21:44:34.602Z,95207.94
2018-12-07T21:47:05.069Z,95208.59
2018-12-07T21:49:46.664Z,95208.25
2018-12-07T21:52:23.992Z,95204.41
2018-12-07T21:54:54.663Z,95205.06
2018-12-07T21:57:25.375Z,95199.92
2018-12-07T21:59:55.924Z,95195.41
2018-12-07T22:02:26.636Z,95191.42
2018-12-07T22:04:57.240Z,95191.90
2018-12-07T22:07:28.753Z,95186.14
2018-12-07T22:09:59.436Z,95185.16
2018-12-07T22:12:30.498Z,95180.81
2018-12-07T22:15:00.811Z,95181.14
2018-12-07T22:17:32.076Z,95188.33
2018-12-07T22:20:02.645Z,95181.32
2018-12-07T22:22:33.277Z,95173.00
2018-12-07T22:25:03.660Z,95173.00
2018-12-07T22:27:34.005Z,95161.67
2018-12-07T22:30:04.876Z,95157.66
2018-12-07T22:32:35.291Z,95164.14
2018-12-07T22:35:06.099Z,95158.70
2018-12-07T22:37:36.561Z,95154.09
2018-12-07T22:40:07.466Z,95145.15
2018-12-07T22:42:38.151Z,95139.86
2018-12-07T22:45:08.730Z,95139.06
2018-12-07T22:47:39.236Z,95139.06
2018-12-07T22:50:09.626Z,95133.52
2018-12-07T22:52:40.011Z,95142.48
2018-12-07T22:55:10.453Z,95132.53
2018-12-07T22:57:40.725Z,95124.97
2018-12-07T23:00:14.042Z,95121.51
2018-12-07T23:02:44.404Z,95120.30
2018-12-07T23:05:14.533Z,95114.72
2018-12-07T23:07:44.666Z,95112.92
2018-12-07T23:10:15.123Z,95111.78
2018-12-07T23:12:45.849Z,95107.33
2018-12-07T23:15:16.173Z,95109.83
2018-12-07T23:17:46.462Z,95107.77
2018-12-07T23:20:16.825Z,95104.73
2018-12-07T23:22:49.106Z,95104.11
2018-12-07T23:25:19.381Z,95104.02
2018-12-07T23:27:49.870Z,95106.22
2018-12-07T23:30:20.303Z,95103.01
2018-12-07T23:32:50.628Z,95105.95
2018-12-07T23:35:20.742Z,95097.68
2018-12-07T23:37:50.807Z,95094.25
2018-12-07T23:40:21.154Z,95093.63
2018-12-07T23:42:53.761Z,95090.09
2018-12-07T23:45:24.079Z,95098.68
2018-12-07T23:47:54.514Z,95084.55
2018-12-07T23:50:24.701Z,95093.16
2018-12-07T23:52:55.104Z,95086.35
2018-12-07T23:55:26.403Z,95083.14
2018-12-07T23:57:56.774Z,95084.08
